Grand Strand Airport

Airport
ICAO code: 
KCRE
IATA Code: 
CRE
Summary
ICAO Region: 
NAM
Territory: 
Location: 
North Myrtle Beach, South Carolina
Serving: 
Horry County
Elevation: 
32 ft
Coordinates: 
Aerial View: 
33° 48' 42.005" N, 78° 43' 26.011" W
Metar
Observation
KCRE 020853Z AUTO 26003KT 10SM CLR 12/06 A3007 RMK AO1 SLP183 T01170061 58005
Station
North Myrtle Beach, Grand Strand Airport
Date/Time
2021-12-02 08:53:00
Wind direction
260°
Wind speed
03 kts
Lowest cloud amount
n/a
Temperature
11.7°C
Dew point
6.1°C
Humidity
68%
Weather condition
n/a

Grand Strand Airport is a county-owned, public-use airport located 1nm northwest of the central business district of North Myrtle Beach, in Horry County, South Carolina, United States.

Climatology

Humid “subtropical” climate (Köppen climate classification Cfa) - characterized by hot, humid summers and cool winters. Significant amounts of precipitation occur in all seasons in most areas. Winter rainfall (and sometimes snowfall) is associated with large storms that the westerlies steer from west to east. Most summer rainfall occurs during thunderstorms and occasional tropical storms (hurricanes).

Runways

Designator Length Width Surface Rops
5/23 1828 30 ASP Yes/Yes
Airport map: 
Aerial View: 

SKYbrary Partners:

Safety knowledge contributed by: